sensor_id;sensor_type;location;lat;lon;timestamp;pressure;altitude;pressure_sealevel;temperature;humidity
7832;BME280;3961;42.058;25.586;2022-09-03T00:10:26;64540.00;;;20.47;100.00
7832;BME280;3961;42.058;25.586;2022-09-03T00:12:56;64535.59;;;20.45;100.00
7832;BME280;3961;42.058;25.586;2022-09-03T00:15:24;64525.06;;;20.36;100.00
7832;BME280;3961;42.058;25.586;2022-09-03T00:18:15;64511.75;;;20.20;100.00
7832;BME280;3961;42.058;25.586;2022-09-03T00:23:07;64530.69;;;20.39;100.00
7832;BME280;3961;42.058;25.586;2022-09-03T00:25:42;64526.47;;;20.40;100.00
7832;BME280;3961;42.058;25.586;2022-09-03T00:28:23;64522.84;;;20.30;100.00
7832;BME280;3961;42.058;25.586;2022-09-03T00:31:21;64530.09;;;20.38;100.00
7832;BME280;3961;42.058;25.586;2022-09-03T00:33:47;64541.56;;;20.46;100.00
7832;BME280;3961;42.058;25.586;2022-09-03T00:36:22;64529.75;;;20.40;100.00
7832;BME280;3961;42.058;25.586;2022-09-03T00:38:50;64528.59;;;20.39;100.00
7832;BME280;3961;42.058;25.586;2022-09-03T00:44:58;64520.75;;;20.30;100.00
7832;BME280;3961;42.058;25.586;2022-09-03T01:01:08;64474.06;;;19.90;100.00
7832;BME280;3961;42.058;25.586;2022-09-03T01:03:49;64501.84;;;20.11;100.00
7832;BME280;3961;42.058;25.586;2022-09-03T01:06:39;64501.84;;;20.11;100.00
7832;BME280;3961;42.058;25.586;2022-09-03T01:14:33;64491.22;;;20.07;100.00
7832;BME280;3961;42.058;25.586;2022-09-03T01:17:28;64492.38;;;20.08;100.00
7832;BME280;3961;42.058;25.586;2022-09-03T01:31:31;64500.91;;;20.13;100.00
7832;BME280;3961;42.058;25.586;2022-09-03T01:34:06;64498.41;;;20.16;100.00
7832;BME280;3961;42.058;25.586;2022-09-03T01:39:25;64491.56;;;20.05;100.00
7832;BME280;3961;42.058;25.586;2022-09-03T01:42:35;64497.63;;;20.12;100.00
7832;BME280;3961;42.058;25.586;2022-09-03T01:48:03;64519.94;;;20.27;100.00
7832;BME280;3961;42.058;25.586;2022-09-03T01:56:26;64481.88;;;19.99;100.00
7832;BME280;3961;42.058;25.586;2022-09-03T01:58:57;64511.53;;;20.18;100.00
7832;BME280;3961;42.058;25.586;2022-09-03T02:01:32;64505.78;;;20.20;100.00
7832;BME280;3961;42.058;25.586;2022-09-03T02:04:01;64513.00;;;20.28;100.00
7832;BME280;3961;42.058;25.586;2022-09-03T02:06:27;64515.13;;;20.28;100.00
7832;BME280;3961;42.058;25.586;2022-09-03T02:08:56;64510.09;;;20.26;100.00
7832;BME280;3961;42.058;25.586;2022-09-03T02:11:22;64508.34;;;20.24;100.00
7832;BME280;3961;42.058;25.586;2022-09-03T02:13:50;64512.56;;;20.23;100.00
7832;BME280;3961;42.058;25.586;2022-09-03T02:16:22;64481.28;;;19.98;100.00
7832;BME280;3961;42.058;25.586;2022-09-03T02:18:58;64506.72;;;20.18;100.00
7832;BME280;3961;42.058;25.586;2022-09-03T02:21:27;64501.13;;;20.16;100.00
7832;BME280;3961;42.058;25.586;2022-09-03T02:23:55;64502.44;;;20.12;100.00
7832;BME280;3961;42.058;25.586;2022-09-03T02:26:23;64504.38;;;20.16;100.00
7832;BME280;3961;42.058;25.586;2022-09-03T02:28:49;64499.94;;;20.14;100.00
7832;BME280;3961;42.058;25.586;2022-09-03T02:31:15;64503.97;;;20.11;100.00
7832;BME280;3961;42.058;25.586;2022-09-03T02:33:43;64497.41;;;20.10;100.00
7832;BME280;3961;42.058;25.586;2022-09-03T02:36:12;64485.38;;;20.02;100.00
7832;BME280;3961;42.058;25.586;2022-09-03T02:38:40;64476.63;;;19.94;100.00
7832;BME280;3961;42.058;25.586;2022-09-03T02:41:06;64496.00;;;20.06;100.00
7832;BME280;3961;42.058;25.586;2022-09-03T02:46:14;64489.47;;;20.05;100.00
7832;BME280;3961;42.058;25.586;2022-09-03T02:48:41;64494.25;;;20.05;100.00
7832;BME280;3961;42.058;25.586;2022-09-03T02:51:07;64481.28;;;19.98;100.00
7832;BME280;3961;42.058;25.586;2022-09-03T02:53:32;64487.13;;;20.03;100.00
7832;BME280;3961;42.058;25.586;2022-09-03T02:55:59;64470.78;;;19.89;100.00
7832;BME280;3961;42.058;25.586;2022-09-03T02:58:25;64480.13;;;19.97;100.00
7832;BME280;3961;42.058;25.586;2022-09-03T03:00:51;64469.25;;;19.90;100.00
7832;BME280;3961;42.058;25.586;2022-09-03T03:03:16;64471.13;;;19.87;100.00
7832;BME280;3961;42.058;25.586;2022-09-03T03:05:45;64462.59;;;19.82;100.00
7832;BME280;3961;42.058;25.586;2022-09-03T03:08:11;64447.69;;;19.71;100.00
7832;BME280;3961;42.058;25.586;2022-09-03T03:10:40;64462.97;;;19.80;100.00
7832;BME280;3961;42.058;25.586;2022-09-03T03:13:07;64461.81;;;19.79;100.00
7832;BME280;3961;42.058;25.586;2022-09-03T03:15:32;64469.59;;;19.88;100.00
7832;BME280;3961;42.058;25.586;2022-09-03T03:17:58;64461.47;;;19.81;100.00
7832;BME280;3961;42.058;25.586;2022-09-03T03:20:24;64443.13;;;19.63;100.00
7832;BME280;3961;42.058;25.586;2022-09-03T03:22:49;64456.34;;;19.72;100.00
7832;BME280;3961;42.058;25.586;2022-09-03T03:25:15;64458.53;;;19.78;100.00
7832;BME280;3961;42.058;25.586;2022-09-03T03:27:40;64467.63;;;19.84;100.00
7832;BME280;3961;42.058;25.586;2022-09-03T03:30:09;64459.72;;;19.79;100.00
7832;BME280;3961;42.058;25.586;2022-09-03T03:32:38;64460.50;;;19.83;100.00
7832;BME280;3961;42.058;25.586;2022-09-03T03:35:04;64467.84;;;19.87;100.00
7832;BME280;3961;42.058;25.586;2022-09-03T03:37:31;64469.38;;;19.86;100.00
7832;BME280;3961;42.058;25.586;2022-09-03T03:39:57;64462.03;;;19.82;100.00
7832;BME280;3961;42.058;25.586;2022-09-03T03:42:23;64468.22;;;19.85;100.00
7832;BME280;3961;42.058;25.586;2022-09-03T03:44:48;64448.84;;;19.72;100.00
7832;BME280;3961;42.058;25.586;2022-09-03T03:47:14;64463.78;;;19.83;100.00
7832;BME280;3961;42.058;25.586;2022-09-03T03:49:42;64456.22;;;19.76;100.00
7832;BME280;3961;42.058;25.586;2022-09-03T03:52:07;64450.94;;;19.72;100.00
7832;BME280;3961;42.058;25.586;2022-09-03T03:54:33;64445.34;;;19.69;100.00
7832;BME280;3961;42.058;25.586;2022-09-03T03:56:58;64448.97;;;19.68;100.00
7832;BME280;3961;42.058;25.586;2022-09-03T03:59:24;64450.50;;;19.67;100.00
7832;BME280;3961;42.058;25.586;2022-09-03T04:01:50;64430.75;;;19.57;100.00
7832;BME280;3961;42.058;25.586;2022-09-03T04:04:15;64429.00;;;19.55;100.00
7832;BME280;3961;42.058;25.586;2022-09-03T04:06:41;64452.47;;;19.71;100.00
7832;BME280;3961;42.058;25.586;2022-09-03T04:09:07;64454.81;;;19.73;100.00
7832;BME280;3961;42.058;25.586;2022-09-03T04:11:32;64451.31;;;19.70;100.00
7832;BME280;3961;42.058;25.586;2022-09-03T04:13:58;64453.28;;;19.74;100.00
7832;BME280;3961;42.058;25.586;2022-09-03T04:16:26;64456.44;;;19.79;100.00
7832;BME280;3961;42.058;25.586;2022-09-03T04:18:52;64464.72;;;19.82;100.00
7832;BME280;3961;42.058;25.586;2022-09-03T04:21:26;64460.50;;;19.83;100.00
7832;BME280;3961;42.058;25.586;2022-09-03T04:23:53;64474.63;;;19.90;100.00
7832;BME280;3961;42.058;25.586;2022-09-03T04:26:24;64485.00;;;20.04;100.00
7832;BME280;3961;42.058;25.586;2022-09-03T04:28:51;64498.22;;;20.13;100.00
7832;BME280;3961;42.058;25.586;2022-09-03T04:31:18;64523.88;;;20.35;100.00
7832;BME280;3961;42.058;25.586;2022-09-03T04:33:44;64559.06;;;20.61;100.00
7832;BME280;3961;42.058;25.586;2022-09-03T04:36:15;64581.13;;;20.85;100.00
7832;BME280;3961;42.058;25.586;2022-09-03T04:38:42;64608.00;;;21.08;100.00
7832;BME280;3961;42.058;25.586;2022-09-03T04:41:10;64645.19;;;21.38;100.00
7832;BME280;3961;42.058;25.586;2022-09-03T04:43:36;64678.13;;;21.69;100.00
7832;BME280;3961;42.058;25.586;2022-09-03T04:46:04;64699.75;;;21.88;100.00
7832;BME280;3961;42.058;25.586;2022-09-03T04:48:32;64697.75;;;21.84;100.00
7832;BME280;3961;42.058;25.586;2022-09-03T04:51:12;64691.34;;;21.78;100.00
7832;BME280;3961;42.058;25.586;2022-09-03T04:53:40;64703.63;;;21.89;100.00
7832;BME280;3961;42.058;25.586;2022-09-03T04:56:23;64696.00;;;21.83;100.00
7832;BME280;3961;42.058;25.586;2022-09-03T04:59:01;64706.91;;;21.90;100.00
7832;BME280;3961;42.058;25.586;2022-09-03T05:01:29;64687.84;;;21.75;100.00
7832;BME280;3961;42.058;25.586;2022-09-03T05:03:55;64692.50;;;21.79;100.00
7832;BME280;3961;42.058;25.586;2022-09-03T05:06:22;64702.66;;;21.91;100.00
7832;BME280;3961;42.058;25.586;2022-09-03T05:08:50;64701.94;;;21.95;100.00
7832;BME280;3961;42.058;25.586;2022-09-03T05:11:17;64709.25;;;21.92;100.00
7832;BME280;3961;42.058;25.586;2022-09-03T05:13:47;64721.78;;;22.05;100.00
7832;BME280;3961;42.058;25.586;2022-09-03T05:16:13;64732.13;;;22.19;100.00
7832;BME280;3961;42.058;25.586;2022-09-03T05:18:39;64703.03;;;21.89;100.00
7832;BME280;3961;42.058;25.586;2022-09-03T05:21:09;64697.41;;;21.86;100.00
7832;BME280;3961;42.058;25.586;2022-09-03T05:23:39;64690.53;;;21.75;100.00
7832;BME280;3961;42.058;25.586;2022-09-03T05:26:08;64692.50;;;21.79;100.00
7832;BME280;3961;42.058;25.586;2022-09-03T05:28:35;64693.09;;;21.80;100.00
7832;BME280;3961;42.058;25.586;2022-09-03T05:31:07;64683.97;;;21.74;100.00
7832;BME280;3961;42.058;25.586;2022-09-03T05:33:37;64669.50;;;21.57;100.00
7832;BME280;3961;42.058;25.586;2022-09-03T05:36:05;64680.25;;;21.69;100.00
7832;BME280;3961;42.058;25.586;2022-09-03T05:38:32;64653.94;;;21.46;100.00
7832;BME280;3961;42.058;25.586;2022-09-03T05:41:01;64656.25;;;21.48;100.00
7832;BME280;3961;42.058;25.586;2022-09-03T05:43:28;64675.78;;;21.67;100.00
7832;BME280;3961;42.058;25.586;2022-09-03T05:46:14;64674.75;;;21.62;100.00
7832;BME280;3961;42.058;25.586;2022-09-03T05:48:43;64665.47;;;21.61;100.00
7832;BME280;3961;42.058;25.586;2022-09-03T05:51:14;64690.97;;;21.80;100.00
7832;BME280;3961;42.058;25.586;2022-09-03T05:53:44;64715.31;;;21.99;100.00
7832;BME280;3961;42.058;25.586;2022-09-03T05:56:16;64706.75;;;21.94;100.00
7832;BME280;3961;42.058;25.586;2022-09-03T05:58:44;64715.56;;;22.02;100.00
7832;BME280;3961;42.058;25.586;2022-09-03T06:01:24;64727.25;;;22.12;100.00
7832;BME280;3961;42.058;25.586;2022-09-03T06:04:04;64752.63;;;22.36;100.00
7832;BME280;3961;42.058;25.586;2022-09-03T06:06:32;64731.13;;;22.13;100.00
7832;BME280;3961;42.058;25.586;2022-09-03T06:09:07;64744.78;;;22.27;100.00
7832;BME280;3961;42.058;25.586;2022-09-03T06:11:37;64753.56;;;22.35;100.00
7832;BME280;3961;42.058;25.586;2022-09-03T06:14:07;64769.13;;;22.46;100.00
7832;BME280;3961;42.058;25.586;2022-09-03T06:16:38;64789.25;;;22.66;100.00
7832;BME280;3961;42.058;25.586;2022-09-03T06:19:04;64770.75;;;22.52;100.00
7832;BME280;3961;42.058;25.586;2022-09-03T06:21:43;64771.09;;;22.50;100.00
7832;BME280;3961;42.058;25.586;2022-09-03T06:24:10;64758.63;;;22.37;100.00
7832;BME280;3961;42.058;25.586;2022-09-03T06:26:38;64771.47;;;22.48;100.00
7832;BME280;3961;42.058;25.586;2022-09-03T06:29:04;64775.78;;;22.54;100.00
7832;BME280;3961;42.058;25.586;2022-09-03T06:31:30;64781.41;;;22.57;100.00
7832;BME280;3961;42.058;25.586;2022-09-03T06:33:57;64780.25;;;22.56;100.00
7832;BME280;3961;42.058;25.586;2022-09-03T06:36:24;64780.47;;;22.58;100.00
7832;BME280;3961;42.058;25.586;2022-09-03T06:38:52;64771.47;;;22.48;100.00
7832;BME280;3961;42.058;25.586;2022-09-03T06:41:21;64776.59;;;22.57;100.00
7832;BME280;3961;42.058;25.586;2022-09-03T06:43:55;64763.50;;;22.43;100.00
7832;BME280;3961;42.058;25.586;2022-09-03T06:46:23;64796.06;;;22.69;100.00
7832;BME280;3961;42.058;25.586;2022-09-03T06:48:49;64798.97;;;22.72;100.00
7832;BME280;3961;42.058;25.586;2022-09-03T06:51:24;64811.63;;;22.81;100.00
7832;BME280;3961;42.058;25.586;2022-09-03T06:53:57;64806.81;;;22.81;100.00
7832;BME280;3961;42.058;25.586;2022-09-03T06:56:23;64830.81;;;23.02;100.00
7832;BME280;3961;42.058;25.586;2022-09-03T06:58:56;64828.84;;;22.98;100.00
7832;BME280;3961;42.058;25.586;2022-09-03T07:01:30;64836.47;;;23.04;100.00
7832;BME280;3961;42.058;25.586;2022-09-03T07:04:03;64814.44;;;22.88;100.00
7832;BME280;3961;42.058;25.586;2022-09-03T07:06:34;64846.03;;;23.15;100.00
7832;BME280;3961;42.058;25.586;2022-09-03T07:09:08;64838.41;;;23.08;100.00
7832;BME280;3961;42.058;25.586;2022-09-03T07:11:34;64835.50;;;23.06;100.00
7832;BME280;3961;42.058;25.586;2022-09-03T07:14:02;64878.00;;;23.40;100.00
7832;BME280;3961;42.058;25.586;2022-09-03T07:16:35;64904.16;;;23.61;100.00
7832;BME280;3961;42.058;25.586;2022-09-03T07:19:02;64901.09;;;23.63;100.00
7832;BME280;3961;42.058;25.586;2022-09-03T07:21:30;64875.09;;;23.38;100.00
7832;BME280;3961;42.058;25.586;2022-09-03T07:23:58;64902.03;;;23.61;100.00
7832;BME280;3961;42.058;25.586;2022-09-03T07:26:27;64903.81;;;23.63;100.00
7832;BME280;3961;42.058;25.586;2022-09-03T07:28:53;64915.34;;;23.77;100.00
7832;BME280;3961;42.058;25.586;2022-09-03T07:31:24;64905.56;;;23.64;100.00
7832;BME280;3961;42.058;25.586;2022-09-03T07:33:53;64937.78;;;23.92;100.00
7832;BME280;3961;42.058;25.586;2022-09-03T07:36:21;64951.81;;;24.04;100.00
7832;BME280;3961;42.058;25.586;2022-09-03T07:38:47;64983.13;;;24.34;100.00
7832;BME280;3961;42.058;25.586;2022-09-03T07:41:14;64992.06;;;24.37;100.00
7832;BME280;3961;42.058;25.586;2022-09-03T07:43:44;65000.72;;;24.49;100.00
7832;BME280;3961;42.058;25.586;2022-09-03T07:46:16;65000.72;;;24.49;100.00
7832;BME280;3961;42.058;25.586;2022-09-03T07:48:54;65026.09;;;24.66;100.00
7832;BME280;3961;42.058;25.586;2022-09-03T07:51:22;65043.28;;;24.84;100.00
7832;BME280;3961;42.058;25.586;2022-09-03T07:53:52;65057.75;;;24.94;100.00
7832;BME280;3961;42.058;25.586;2022-09-03T07:56:18;65063.09;;;25.05;100.00
7832;BME280;3961;42.058;25.586;2022-09-03T07:58:43;65079.53;;;25.20;100.00
7832;BME280;3961;42.058;25.586;2022-09-03T08:01:20;65070.88;;;25.07;100.00
7832;BME280;3961;42.058;25.586;2022-09-03T08:03:48;65110.53;;;25.39;100.00
7832;BME280;3961;42.058;25.586;2022-09-03T08:06:16;65142.47;;;25.69;100.00
7832;BME280;3961;42.058;25.586;2022-09-03T08:08:42;65108.41;;;25.40;100.00
7832;BME280;3961;42.058;25.586;2022-09-03T08:11:10;65131.53;;;25.62;100.00
7832;BME280;3961;42.058;25.586;2022-09-03T08:13:38;65126.97;;;25.54;100.00
7832;BME280;3961;42.058;25.586;2022-09-03T08:16:05;65140.34;;;25.70;100.00
7832;BME280;3961;42.058;25.586;2022-09-03T08:18:33;65157.38;;;25.85;100.00
7832;BME280;3961;42.058;25.586;2022-09-03T08:21:03;65180.03;;;26.02;100.00
7832;BME280;3961;42.058;25.586;2022-09-03T08:23:30;65185.31;;;26.06;100.00
7832;BME280;3961;42.058;25.586;2022-09-03T08:25:59;65202.34;;;26.21;100.00
7832;BME280;3961;42.058;25.586;2022-09-03T08:28:26;65214.13;;;26.31;100.00
7832;BME280;3961;42.058;25.586;2022-09-03T08:30:52;65199.41;;;26.19;100.00
7832;BME280;3961;42.058;25.586;2022-09-03T08:33:17;65222.91;;;26.39;100.00
7832;BME280;3961;42.058;25.586;2022-09-03T08:36:08;65211.97;;;26.32;100.00
7832;BME280;3961;42.058;25.586;2022-09-03T08:38:35;65180.25;;;26.04;100.00
7832;BME280;3961;42.058;25.586;2022-09-03T08:41:16;65200.59;;;26.20;100.00
7832;BME280;3961;42.058;25.586;2022-09-03T08:44:21;65203.75;;;26.25;100.00
7832;BME280;3961;42.058;25.586;2022-09-03T08:47:11;65204.53;;;26.28;100.00
7832;BME280;3961;42.058;25.586;2022-09-03T08:52:32;65231.34;;;26.49;100.00
7832;BME280;3961;42.058;25.586;2022-09-03T08:57:46;65304.22;;;27.12;99.60
7832;BME280;3961;42.058;25.586;2022-09-03T09:00:13;65335.91;;;27.32;98.72
7832;BME280;3961;42.058;25.586;2022-09-03T09:03:14;65318.50;;;27.19;100.00
7832;BME280;3961;42.058;25.586;2022-09-03T09:08:36;65352.59;;;27.49;98.96
7832;BME280;3961;42.058;25.586;2022-09-03T09:13:49;65363.59;;;27.63;97.13
7832;BME280;3961;42.058;25.586;2022-09-03T09:16:21;65396.13;;;27.86;94.81
7832;BME280;3961;42.058;25.586;2022-09-03T09:21:48;65393.41;;;27.86;96.07
7832;BME280;3961;42.058;25.586;2022-09-03T09:24:22;65444.00;;;28.30;95.60
7832;BME280;3961;42.058;25.586;2022-09-03T09:26:54;65456.94;;;28.41;90.62
7832;BME280;3961;42.058;25.586;2022-09-03T09:29:21;65469.31;;;28.52;93.23
7832;BME280;3961;42.058;25.586;2022-09-03T09:31:47;65461.28;;;28.47;94.38
7832;BME280;3961;42.058;25.586;2022-09-03T09:34:13;65445.97;;;28.34;96.14
7832;BME280;3961;42.058;25.586;2022-09-03T09:36:52;65456.16;;;28.38;92.44
7832;BME280;3961;42.058;25.586;2022-09-03T09:39:18;65469.69;;;28.50;91.94
7832;BME280;3961;42.058;25.586;2022-09-03T09:42:00;65466.97;;;28.50;89.92
7832;BME280;3961;42.058;25.586;2022-09-03T09:44:33;65432.81;;;28.20;91.54
7832;BME280;3961;42.058;25.586;2022-09-03T09:47:10;65414.34;;;28.02;92.23
7832;BME280;3961;42.058;25.586;2022-09-03T09:49:50;65416.13;;;28.03;93.77
7832;BME280;3961;42.058;25.586;2022-09-03T09:52:16;65393.41;;;27.86;92.88
7832;BME280;3961;42.058;25.586;2022-09-03T09:54:44;65394.41;;;27.92;90.42
7832;BME280;3961;42.058;25.586;2022-09-03T09:57:30;65398.13;;;27.90;90.12
7832;BME280;3961;42.058;25.586;2022-09-03T10:00:05;65362.25;;;27.59;91.55
7832;BME280;3961;42.058;25.586;2022-09-03T10:02:34;65367.13;;;27.66;92.29
7832;BME280;3961;42.058;25.586;2022-09-03T10:05:20;65376.13;;;27.69;91.89
7832;BME280;3961;42.058;25.586;2022-09-03T10:08:17;65358.09;;;27.56;93.21
7832;BME280;3961;42.058;25.586;2022-09-03T10:10:48;65381.41;;;27.73;92.29
7832;BME280;3961;42.058;25.586;2022-09-03T10:13:41;65386.94;;;27.81;92.43
7832;BME280;3961;42.058;25.586;2022-09-03T10:16:26;65395.75;;;27.88;89.45
7832;BME280;3961;42.058;25.586;2022-09-03T10:21:26;65344.19;;;27.46;91.23
7832;BME280;3961;42.058;25.586;2022-09-03T10:24:10;65326.94;;;27.29;92.79
7832;BME280;3961;42.058;25.586;2022-09-03T10:26:41;65349.66;;;27.46;93.63
7832;BME280;3961;42.058;25.586;2022-09-03T10:29:11;65346.13;;;27.43;92.65
7832;BME280;3961;42.058;25.586;2022-09-03T10:35:28;65361.06;;;27.58;90.74
7832;BME280;3961;42.058;25.586;2022-09-03T10:48:52;65379.44;;;27.69;91.92
7832;BME280;3961;42.058;25.586;2022-09-03T10:51:30;65366.72;;;27.61;90.33
7832;BME280;3961;42.058;25.586;2022-09-03T10:54:09;65353.03;;;27.54;90.88
7832;BME280;3961;42.058;25.586;2022-09-03T11:00:09;65374.78;;;27.72;92.63
7832;BME280;3961;42.058;25.586;2022-09-03T11:05:14;65453.63;;;28.40;88.86
7832;BME280;3961;42.058;25.586;2022-09-03T11:07:47;65472.06;;;28.52;86.55
7832;BME280;3961;42.058;25.586;2022-09-03T11:10:27;65451.28;;;28.38;86.83
7832;BME280;3961;42.058;25.586;2022-09-03T11:15:58;65453.41;;;28.38;85.87
7832;BME280;3961;42.058;25.586;2022-09-03T11:18:44;65480.09;;;28.63;85.41
7832;BME280;3961;42.058;25.586;2022-09-03T11:21:13;65499.91;;;28.78;86.84
7832;BME280;3961;42.058;25.586;2022-09-03T11:23:43;65548.38;;;29.15;84.38
7832;BME280;3961;42.058;25.586;2022-09-03T11:26:12;65555.47;;;29.28;85.54
7832;BME280;3961;42.058;25.586;2022-09-03T11:28:47;65570.97;;;29.37;82.98
7832;BME280;3961;42.058;25.586;2022-09-03T11:31:24;65588.88;;;29.55;81.91
7832;BME280;3961;42.058;25.586;2022-09-03T11:33:58;65615.34;;;29.70;80.48
7832;BME280;3961;42.058;25.586;2022-09-03T11:36:32;65628.38;;;29.89;78.93
7832;BME280;3961;42.058;25.586;2022-09-03T11:38:58;65608.53;;;29.74;76.58
7832;BME280;3961;42.058;25.586;2022-09-03T11:41:32;65614.00;;;29.74;74.34
7832;BME280;3961;42.058;25.586;2022-09-03T11:44:19;65625.41;;;29.86;75.56
7832;BME280;3961;42.058;25.586;2022-09-03T11:46:56;65642.91;;;29.99;74.42
7832;BME280;3961;42.058;25.586;2022-09-03T11:49:31;65644.66;;;30.00;75.05
7832;BME280;3961;42.058;25.586;2022-09-03T11:52:02;65655.66;;;30.07;75.97
7832;BME280;3961;42.058;25.586;2022-09-03T11:54:42;65627.78;;;29.88;79.11
7832;BME280;3961;42.058;25.586;2022-09-03T11:57:12;65606.94;;;29.68;77.71
7832;BME280;3961;42.058;25.586;2022-09-03T11:59:42;65624.22;;;29.85;77.39
7832;BME280;3961;42.058;25.586;2022-09-03T12:02:19;65613.63;;;29.76;79.51
7832;BME280;3961;42.058;25.586;2022-09-03T12:04:58;65604.78;;;29.68;78.74
7832;BME280;3961;42.058;25.586;2022-09-03T12:10:11;65580.84;;;29.50;80.48
7832;BME280;3961;42.058;25.586;2022-09-03T12:12:48;65549.78;;;29.19;78.71
7832;BME280;3961;42.058;25.586;2022-09-03T12:18:06;65518.56;;;28.92;80.52
7832;BME280;3961;42.058;25.586;2022-09-03T12:20:47;65505.47;;;28.85;81.25
7832;BME280;3961;42.058;25.586;2022-09-03T12:23:28;65517.00;;;28.93;81.64
7832;BME280;3961;42.058;25.586;2022-09-03T12:25:57;65513.50;;;28.90;81.32
7832;BME280;3961;42.058;25.586;2022-09-03T12:28:29;65522.31;;;28.97;80.39
7832;BME280;3961;42.058;25.586;2022-09-03T12:31:05;65534.69;;;29.08;80.67
7832;BME280;3961;42.058;25.586;2022-09-03T12:33:32;65532.31;;;29.06;80.91
7832;BME280;3961;42.058;25.586;2022-09-03T12:36:00;65558.81;;;29.29;79.29
7832;BME280;3961;42.058;25.586;2022-09-03T12:38:27;65555.47;;;29.21;79.91
7832;BME280;3961;42.058;25.586;2022-09-03T12:40:54;65529.75;;;29.01;81.69
7832;BME280;3961;42.058;25.586;2022-09-03T12:43:26;65512.31;;;28.89;80.65
7832;BME280;3961;42.058;25.586;2022-09-03T12:45:52;65491.47;;;28.68;82.90
7832;BME280;3961;42.058;25.586;2022-09-03T12:48:19;65473.44;;;28.55;83.99
7832;BME280;3961;42.058;25.586;2022-09-03T12:50:46;65471.09;;;28.53;85.18
7832;BME280;3961;42.058;25.586;2022-09-03T12:53:22;65462.03;;;28.43;83.84
7832;BME280;3961;42.058;25.586;2022-09-03T12:55:54;65466.00;;;28.51;84.32
7832;BME280;3961;42.058;25.586;2022-09-03T12:59:01;65480.09;;;28.56;84.11
7832;BME280;3961;42.058;25.586;2022-09-03T13:01:27;65475.97;;;28.60;83.31
7832;BME280;3961;42.058;25.586;2022-09-03T13:04:13;65406.69;;;27.95;83.54
7832;BME280;3961;42.058;25.586;2022-09-03T13:09:11;65332.44;;;27.36;87.04
7832;BME280;3961;42.058;25.586;2022-09-03T13:11:38;65326.94;;;27.29;88.60
7832;BME280;3961;42.058;25.586;2022-09-03T13:14:06;65303.63;;;27.11;88.90
7832;BME280;3961;42.058;25.586;2022-09-03T13:28:07;65251.50;;;26.61;87.06
7832;BME280;3961;42.058;25.586;2022-09-03T13:33:37;65242.91;;;26.56;87.20
7832;BME280;3961;42.058;25.586;2022-09-03T13:36:17;65265.94;;;26.71;86.74
7832;BME280;3961;42.058;25.586;2022-09-03T13:41:33;65284.03;;;26.92;82.50
7832;BME280;3961;42.058;25.586;2022-09-03T13:44:22;65292.47;;;27.01;83.75
7832;BME280;3961;42.058;25.586;2022-09-03T13:47:09;65316.94;;;27.20;82.31
7832;BME280;3961;42.058;25.586;2022-09-03T13:49:46;65324.78;;;27.29;82.67
7832;BME280;3961;42.058;25.586;2022-09-03T14:06:10;65312.84;;;27.17;81.26
7832;BME280;3961;42.058;25.586;2022-09-03T14:22:21;65311.66;;;27.16;81.33
7832;BME280;3961;42.058;25.586;2022-09-03T14:24:58;65301.44;;;27.04;81.07
7832;BME280;3961;42.058;25.586;2022-09-03T14:27:27;65284.03;;;26.92;80.30
7832;BME280;3961;42.058;25.586;2022-09-03T14:29:59;65282.25;;;26.90;81.17
7832;BME280;3961;42.058;25.586;2022-09-03T14:35:43;65275.00;;;26.82;80.99
7832;BME280;3961;42.058;25.586;2022-09-03T14:40:45;65279.09;;;26.85;80.96
7832;BME280;3961;42.058;25.586;2022-09-03T15:06:16;65242.47;;;26.51;82.67
7832;BME280;3961;42.058;25.586;2022-09-03T15:11:51;65179.44;;;26.01;84.71
7832;BME280;3961;42.058;25.586;2022-09-03T15:14:34;65163.97;;;25.86;85.65
7832;BME280;3961;42.058;25.586;2022-09-03T15:23:07;65118.59;;;25.51;87.02
7832;BME280;3961;42.058;25.586;2022-09-03T15:31:22;65097.31;;;25.37;88.46
7832;BME280;3961;42.058;25.586;2022-09-03T15:36:25;65095.75;;;25.31;87.82
7832;BME280;3961;42.058;25.586;2022-09-03T15:38:58;65103.72;;;25.36;87.93
7832;BME280;3961;42.058;25.586;2022-09-03T15:41:49;65123.38;;;25.43;87.68
7832;BME280;3961;42.058;25.586;2022-09-03T15:44:16;65124.25;;;25.54;87.38
7832;BME280;3961;42.058;25.586;2022-09-03T15:52:09;65112.88;;;25.41;87.92
7832;BME280;3961;42.058;25.586;2022-09-03T15:57:46;65064.00;;;24.97;89.05
7832;BME280;3961;42.058;25.586;2022-09-03T16:00:18;65086.13;;;25.21;88.79
7832;BME280;3961;42.058;25.586;2022-09-03T16:03:12;65077.31;;;25.13;88.06
7832;BME280;3961;42.058;25.586;2022-09-03T16:05:45;65066.56;;;25.01;89.48
7832;BME280;3961;42.058;25.586;2022-09-03T16:10:41;65031.78;;;24.76;89.97
7832;BME280;3961;42.058;25.586;2022-09-03T16:13:28;65039.19;;;24.80;91.91
7832;BME280;3961;42.058;25.586;2022-09-03T16:16:01;65026.09;;;24.66;90.73
7832;BME280;3961;42.058;25.586;2022-09-03T16:21:36;65038.59;;;24.79;90.69
7832;BME280;3961;42.058;25.586;2022-09-03T16:24:18;65023.72;;;24.64;92.22
7832;BME280;3961;42.058;25.586;2022-09-03T16:26:49;65021.97;;;24.63;92.25
7832;BME280;3961;42.058;25.586;2022-09-03T16:29:17;65012.44;;;24.59;92.22
7832;BME280;3961;42.058;25.586;2022-09-03T16:43:15;64957.09;;;24.09;93.68
7832;BME280;3961;42.058;25.586;2022-09-03T16:49:03;64941.88;;;23.96;95.06
7832;BME280;3961;42.058;25.586;2022-09-03T17:00:00;64919.03;;;23.76;98.09
7832;BME280;3961;42.058;25.586;2022-09-03T17:10:45;64897.34;;;23.57;97.87
7832;BME280;3961;42.058;25.586;2022-09-03T17:19:34;64881.53;;;23.43;99.30
7832;BME280;3961;42.058;25.586;2022-09-03T17:24:45;64888.91;;;23.48;99.75
7832;BME280;3961;42.058;25.586;2022-09-03T17:27:58;64885.84;;;23.50;99.13
7832;BME280;3961;42.058;25.586;2022-09-03T17:30:50;64871.34;;;23.32;100.00
7832;BME280;3961;42.058;25.586;2022-09-03T17:39:27;64841.34;;;23.11;100.00
7832;BME280;3961;42.058;25.586;2022-09-03T17:44:04;64834.91;;;23.05;100.00
7832;BME280;3961;42.058;25.586;2022-09-03T17:46:45;64832.00;;;23.03;100.00
7832;BME280;3961;42.058;25.586;2022-09-03T17:49:20;64806.59;;;22.78;100.00
7832;BME280;3961;42.058;25.586;2022-09-03T17:52:06;64802.84;;;22.73;100.00